sensor_id;sensor_type;location;lat;lon;timestamp;P1;durP1;ratioP1;P2;durP2;ratioP2
46491;SDS011;32206;51.446;6.792;2022-12-13T00:01:46;37.65;;;17.52;;
46491;SDS011;32206;51.446;6.792;2022-12-13T00:04:14;30.95;;;17.30;;
46491;SDS011;32206;51.446;6.792;2022-12-13T00:06:40;33.00;;;17.45;;
46491;SDS011;32206;51.446;6.792;2022-12-13T00:09:06;30.88;;;17.70;;
46491;SDS011;32206;51.446;6.792;2022-12-13T00:11:32;32.38;;;17.75;;
46491;SDS011;32206;51.446;6.792;2022-12-13T00:13:58;34.55;;;18.33;;
46491;SDS011;32206;51.446;6.792;2022-12-13T00:16:27;35.05;;;16.55;;
46491;SDS011;32206;51.446;6.792;2022-12-13T00:18:56;29.50;;;17.67;;
46491;SDS011;32206;51.446;6.792;2022-12-13T00:21:25;35.00;;;19.42;;
46491;SDS011;32206;51.446;6.792;2022-12-13T00:23:52;39.38;;;18.70;;
46491;SDS011;32206;51.446;6.792;2022-12-13T00:26:19;37.80;;;18.50;;
46491;SDS011;32206;51.446;6.792;2022-12-13T00:28:51;34.30;;;18.00;;
46491;SDS011;32206;51.446;6.792;2022-12-13T00:31:18;33.50;;;18.55;;
46491;SDS011;32206;51.446;6.792;2022-12-13T00:33:45;40.40;;;19.30;;
46491;SDS011;32206;51.446;6.792;2022-12-13T00:36:11;34.72;;;18.13;;
46491;SDS011;32206;51.446;6.792;2022-12-13T00:38:37;37.00;;;18.95;;
46491;SDS011;32206;51.446;6.792;2022-12-13T00:41:12;40.92;;;19.50;;
46491;SDS011;32206;51.446;6.792;2022-12-13T00:43:39;40.88;;;20.60;;
46491;SDS011;32206;51.446;6.792;2022-12-13T00:46:12;39.20;;;18.73;;
46491;SDS011;32206;51.446;6.792;2022-12-13T00:48:39;36.92;;;18.92;;
46491;SDS011;32206;51.446;6.792;2022-12-13T00:51:06;34.33;;;18.75;;
46491;SDS011;32206;51.446;6.792;2022-12-13T00:53:34;35.63;;;18.30;;
46491;SDS011;32206;51.446;6.792;2022-12-13T00:56:01;35.20;;;19.52;;
46491;SDS011;32206;51.446;6.792;2022-12-13T00:58:26;35.25;;;19.00;;
46491;SDS011;32206;51.446;6.792;2022-12-13T01:00:52;39.50;;;19.70;;
46491;SDS011;32206;51.446;6.792;2022-12-13T01:03:26;32.08;;;17.40;;
46491;SDS011;32206;51.446;6.792;2022-12-13T01:05:51;33.78;;;18.48;;
46491;SDS011;32206;51.446;6.792;2022-12-13T01:08:17;36.03;;;18.70;;
46491;SDS011;32206;51.446;6.792;2022-12-13T01:10:43;31.63;;;17.25;;
46491;SDS011;32206;51.446;6.792;2022-12-13T01:13:10;38.13;;;18.17;;
46491;SDS011;32206;51.446;6.792;2022-12-13T01:15:40;33.28;;;18.88;;
46491;SDS011;32206;51.446;6.792;2022-12-13T01:18:10;34.05;;;18.50;;
46491;SDS011;32206;51.446;6.792;2022-12-13T01:20:37;36.05;;;18.00;;
46491;SDS011;32206;51.446;6.792;2022-12-13T01:23:03;33.45;;;16.98;;
46491;SDS011;32206;51.446;6.792;2022-12-13T01:25:30;33.72;;;18.50;;
46491;SDS011;32206;51.446;6.792;2022-12-13T01:27:57;33.92;;;18.38;;
46491;SDS011;32206;51.446;6.792;2022-12-13T01:30:23;39.08;;;17.88;;
46491;SDS011;32206;51.446;6.792;2022-12-13T01:32:49;33.40;;;17.80;;
46491;SDS011;32206;51.446;6.792;2022-12-13T01:35:15;34.42;;;18.20;;
46491;SDS011;32206;51.446;6.792;2022-12-13T01:37:41;35.03;;;18.45;;
46491;SDS011;32206;51.446;6.792;2022-12-13T01:40:07;34.25;;;17.63;;
46491;SDS011;32206;51.446;6.792;2022-12-13T01:42:36;34.70;;;19.20;;
46491;SDS011;32206;51.446;6.792;2022-12-13T01:47:39;31.73;;;18.65;;
46491;SDS011;32206;51.446;6.792;2022-12-13T01:50:13;31.42;;;17.52;;
46491;SDS011;32206;51.446;6.792;2022-12-13T01:52:42;32.22;;;16.65;;
46491;SDS011;32206;51.446;6.792;2022-12-13T01:55:09;35.00;;;17.95;;
46491;SDS011;32206;51.446;6.792;2022-12-13T01:57:36;32.03;;;18.52;;
46491;SDS011;32206;51.446;6.792;2022-12-13T02:00:04;34.13;;;18.50;;
46491;SDS011;32206;51.446;6.792;2022-12-13T02:02:31;38.58;;;18.25;;
46491;SDS011;32206;51.446;6.792;2022-12-13T02:05:05;34.22;;;17.85;;
46491;SDS011;32206;51.446;6.792;2022-12-13T02:07:40;35.00;;;18.70;;
46491;SDS011;32206;51.446;6.792;2022-12-13T02:10:07;35.72;;;18.52;;
46491;SDS011;32206;51.446;6.792;2022-12-13T02:12:34;30.00;;;17.05;;
46491;SDS011;32206;51.446;6.792;2022-12-13T02:15:02;31.63;;;17.92;;
46491;SDS011;32206;51.446;6.792;2022-12-13T02:39:06;36.35;;;19.75;;
46491;SDS011;32206;51.446;6.792;2022-12-13T02:41:47;35.42;;;18.50;;
46491;SDS011;32206;51.446;6.792;2022-12-13T02:44:27;39.17;;;17.92;;
46491;SDS011;32206;51.446;6.792;2022-12-13T02:47:02;34.60;;;17.52;;
46491;SDS011;32206;51.446;6.792;2022-12-13T02:49:33;36.03;;;18.52;;
46491;SDS011;32206;51.446;6.792;2022-12-13T02:52:03;32.63;;;17.92;;
46491;SDS011;32206;51.446;6.792;2022-12-13T02:54:31;35.33;;;18.40;;
46491;SDS011;32206;51.446;6.792;2022-12-13T02:56:58;36.35;;;18.48;;
46491;SDS011;32206;51.446;6.792;2022-12-13T02:59:26;37.17;;;18.92;;
46491;SDS011;32206;51.446;6.792;2022-12-13T03:02:18;43.97;;;20.85;;
46491;SDS011;32206;51.446;6.792;2022-12-13T03:07:59;36.30;;;18.90;;
46491;SDS011;32206;51.446;6.792;2022-12-13T03:10:36;37.33;;;19.48;;
46491;SDS011;32206;51.446;6.792;2022-12-13T03:13:16;34.22;;;18.88;;
46491;SDS011;32206;51.446;6.792;2022-12-13T03:16:08;38.17;;;17.55;;
46491;SDS011;32206;51.446;6.792;2022-12-13T03:18:44;41.03;;;18.67;;
46491;SDS011;32206;51.446;6.792;2022-12-13T03:21:11;34.00;;;19.42;;
46491;SDS011;32206;51.446;6.792;2022-12-13T03:23:37;37.40;;;19.25;;
46491;SDS011;32206;51.446;6.792;2022-12-13T03:26:06;39.30;;;18.63;;
46491;SDS011;32206;51.446;6.792;2022-12-13T03:28:33;41.45;;;20.83;;
46491;SDS011;32206;51.446;6.792;2022-12-13T03:30:58;34.58;;;17.88;;
46491;SDS011;32206;51.446;6.792;2022-12-13T03:33:24;45.00;;;19.98;;
46491;SDS011;32206;51.446;6.792;2022-12-13T03:35:49;34.63;;;17.80;;
46491;SDS011;32206;51.446;6.792;2022-12-13T03:38:16;34.58;;;17.90;;
46491;SDS011;32206;51.446;6.792;2022-12-13T03:40:42;36.30;;;17.88;;
46491;SDS011;32206;51.446;6.792;2022-12-13T03:43:08;36.13;;;18.20;;
46491;SDS011;32206;51.446;6.792;2022-12-13T03:45:34;37.60;;;17.92;;
46491;SDS011;32206;51.446;6.792;2022-12-13T03:48:00;31.10;;;17.60;;
46491;SDS011;32206;51.446;6.792;2022-12-13T03:50:25;33.80;;;18.27;;
46491;SDS011;32206;51.446;6.792;2022-12-13T03:52:56;38.35;;;18.23;;
46491;SDS011;32206;51.446;6.792;2022-12-13T03:55:23;32.70;;;17.77;;
46491;SDS011;32206;51.446;6.792;2022-12-13T03:57:49;35.33;;;17.60;;
46491;SDS011;32206;51.446;6.792;2022-12-13T04:00:15;38.58;;;18.73;;
46491;SDS011;32206;51.446;6.792;2022-12-13T04:02:41;32.88;;;18.00;;
46491;SDS011;32206;51.446;6.792;2022-12-13T04:05:06;35.03;;;18.17;;
46491;SDS011;32206;51.446;6.792;2022-12-13T04:07:32;30.83;;;17.48;;
46491;SDS011;32206;51.446;6.792;2022-12-13T04:09:58;31.40;;;15.63;;
46491;SDS011;32206;51.446;6.792;2022-12-13T04:12:23;32.75;;;16.27;;
46491;SDS011;32206;51.446;6.792;2022-12-13T04:15:08;36.10;;;17.35;;
46491;SDS011;32206;51.446;6.792;2022-12-13T04:17:33;34.95;;;15.93;;
46491;SDS011;32206;51.446;6.792;2022-12-13T04:19:59;33.35;;;18.27;;
46491;SDS011;32206;51.446;6.792;2022-12-13T04:22:25;34.50;;;17.50;;
46491;SDS011;32206;51.446;6.792;2022-12-13T04:24:50;31.67;;;17.98;;
46491;SDS011;32206;51.446;6.792;2022-12-13T04:27:16;34.85;;;17.88;;
46491;SDS011;32206;51.446;6.792;2022-12-13T04:29:41;35.20;;;16.58;;
46491;SDS011;32206;51.446;6.792;2022-12-13T04:32:07;31.20;;;17.63;;
46491;SDS011;32206;51.446;6.792;2022-12-13T04:34:33;35.08;;;18.52;;
46491;SDS011;32206;51.446;6.792;2022-12-13T04:36:58;30.75;;;15.80;;
46491;SDS011;32206;51.446;6.792;2022-12-13T04:39:24;35.25;;;18.10;;
46491;SDS011;32206;51.446;6.792;2022-12-13T04:41:52;34.83;;;17.20;;
46491;SDS011;32206;51.446;6.792;2022-12-13T04:44:18;36.10;;;18.40;;
46491;SDS011;32206;51.446;6.792;2022-12-13T04:46:44;29.80;;;17.02;;
46491;SDS011;32206;51.446;6.792;2022-12-13T04:49:09;37.10;;;17.08;;
46491;SDS011;32206;51.446;6.792;2022-12-13T04:51:35;38.05;;;18.83;;
46491;SDS011;32206;51.446;6.792;2022-12-13T04:54:00;32.67;;;17.60;;
46491;SDS011;32206;51.446;6.792;2022-12-13T04:56:26;34.30;;;17.60;;
46491;SDS011;32206;51.446;6.792;2022-12-13T04:58:52;32.28;;;18.08;;
46491;SDS011;32206;51.446;6.792;2022-12-13T05:01:17;35.55;;;18.00;;
46491;SDS011;32206;51.446;6.792;2022-12-13T05:03:43;33.47;;;17.13;;
46491;SDS011;32206;51.446;6.792;2022-12-13T05:06:10;33.30;;;18.00;;
46491;SDS011;32206;51.446;6.792;2022-12-13T05:08:37;34.38;;;16.83;;
46491;SDS011;32206;51.446;6.792;2022-12-13T05:11:04;38.70;;;17.65;;
46491;SDS011;32206;51.446;6.792;2022-12-13T05:13:30;36.90;;;19.10;;
46491;SDS011;32206;51.446;6.792;2022-12-13T05:15:59;36.58;;;16.23;;
46491;SDS011;32206;51.446;6.792;2022-12-13T05:18:26;37.80;;;17.80;;
46491;SDS011;32206;51.446;6.792;2022-12-13T05:20:52;31.90;;;17.05;;
46491;SDS011;32206;51.446;6.792;2022-12-13T05:23:19;36.65;;;18.33;;
46491;SDS011;32206;51.446;6.792;2022-12-13T05:25:47;31.40;;;17.20;;
46491;SDS011;32206;51.446;6.792;2022-12-13T05:28:13;36.58;;;18.55;;
46491;SDS011;32206;51.446;6.792;2022-12-13T05:30:39;33.45;;;17.73;;
46491;SDS011;32206;51.446;6.792;2022-12-13T05:33:05;33.58;;;16.88;;
46491;SDS011;32206;51.446;6.792;2022-12-13T05:35:31;33.83;;;16.02;;
46491;SDS011;32206;51.446;6.792;2022-12-13T05:37:57;30.52;;;16.15;;
46491;SDS011;32206;51.446;6.792;2022-12-13T05:40:23;31.63;;;16.50;;
46491;SDS011;32206;51.446;6.792;2022-12-13T05:42:51;32.72;;;17.90;;
46491;SDS011;32206;51.446;6.792;2022-12-13T05:45:17;35.60;;;17.05;;
46491;SDS011;32206;51.446;6.792;2022-12-13T05:47:43;33.75;;;16.85;;
46491;SDS011;32206;51.446;6.792;2022-12-13T05:50:10;34.25;;;15.93;;
46491;SDS011;32206;51.446;6.792;2022-12-13T05:52:36;36.63;;;17.33;;
46491;SDS011;32206;51.446;6.792;2022-12-13T05:55:02;30.83;;;17.55;;
46491;SDS011;32206;51.446;6.792;2022-12-13T05:57:28;32.33;;;16.80;;
46491;SDS011;32206;51.446;6.792;2022-12-13T05:59:53;30.75;;;17.17;;
46491;SDS011;32206;51.446;6.792;2022-12-13T06:02:20;36.90;;;16.73;;
46491;SDS011;32206;51.446;6.792;2022-12-13T06:04:45;30.85;;;15.93;;
46491;SDS011;32206;51.446;6.792;2022-12-13T06:07:11;36.17;;;18.00;;
46491;SDS011;32206;51.446;6.792;2022-12-13T06:09:38;30.45;;;17.05;;
46491;SDS011;32206;51.446;6.792;2022-12-13T06:12:03;34.22;;;18.20;;
46491;SDS011;32206;51.446;6.792;2022-12-13T06:14:29;36.22;;;17.60;;
46491;SDS011;32206;51.446;6.792;2022-12-13T06:16:55;32.58;;;16.50;;
46491;SDS011;32206;51.446;6.792;2022-12-13T06:19:21;28.02;;;16.17;;
46491;SDS011;32206;51.446;6.792;2022-12-13T06:21:51;32.42;;;15.98;;
46491;SDS011;32206;51.446;6.792;2022-12-13T06:24:19;34.97;;;16.38;;
46491;SDS011;32206;51.446;6.792;2022-12-13T06:26:46;30.98;;;16.67;;
46491;SDS011;32206;51.446;6.792;2022-12-13T06:29:13;31.33;;;16.13;;
46491;SDS011;32206;51.446;6.792;2022-12-13T06:31:40;27.13;;;16.02;;
46491;SDS011;32206;51.446;6.792;2022-12-13T06:34:05;35.80;;;15.60;;
46491;SDS011;32206;51.446;6.792;2022-12-13T06:36:31;31.67;;;17.10;;
46491;SDS011;32206;51.446;6.792;2022-12-13T06:39:00;29.83;;;14.65;;
46491;SDS011;32206;51.446;6.792;2022-12-13T06:41:30;31.52;;;17.10;;
46491;SDS011;32206;51.446;6.792;2022-12-13T06:43:55;28.85;;;14.68;;
46491;SDS011;32206;51.446;6.792;2022-12-13T06:46:22;33.20;;;16.55;;
46491;SDS011;32206;51.446;6.792;2022-12-13T06:48:48;35.72;;;17.17;;
46491;SDS011;32206;51.446;6.792;2022-12-13T06:51:14;30.73;;;15.98;;
46491;SDS011;32206;51.446;6.792;2022-12-13T06:53:40;40.55;;;16.52;;
46491;SDS011;32206;51.446;6.792;2022-12-13T06:56:06;32.28;;;18.45;;
46491;SDS011;32206;51.446;6.792;2022-12-13T06:58:33;30.60;;;18.25;;
46491;SDS011;32206;51.446;6.792;2022-12-13T07:01:04;29.92;;;16.30;;
46491;SDS011;32206;51.446;6.792;2022-12-13T07:03:32;29.60;;;17.33;;
46491;SDS011;32206;51.446;6.792;2022-12-13T07:05:59;32.00;;;17.67;;
46491;SDS011;32206;51.446;6.792;2022-12-13T07:08:27;33.50;;;17.10;;
46491;SDS011;32206;51.446;6.792;2022-12-13T07:10:53;33.80;;;16.05;;
46491;SDS011;32206;51.446;6.792;2022-12-13T07:13:20;35.25;;;17.27;;
46491;SDS011;32206;51.446;6.792;2022-12-13T07:15:46;35.25;;;17.40;;
46491;SDS011;32206;51.446;6.792;2022-12-13T07:18:12;35.25;;;16.20;;
46491;SDS011;32206;51.446;6.792;2022-12-13T07:20:41;35.95;;;17.77;;
46491;SDS011;32206;51.446;6.792;2022-12-13T07:23:07;33.83;;;17.35;;
46491;SDS011;32206;51.446;6.792;2022-12-13T07:25:33;37.97;;;17.83;;
46491;SDS011;32206;51.446;6.792;2022-12-13T07:27:59;31.67;;;17.40;;
46491;SDS011;32206;51.446;6.792;2022-12-13T07:30:26;34.70;;;16.27;;
46491;SDS011;32206;51.446;6.792;2022-12-13T07:32:52;31.80;;;17.95;;
46491;SDS011;32206;51.446;6.792;2022-12-13T07:35:18;32.08;;;16.65;;
46491;SDS011;32206;51.446;6.792;2022-12-13T07:37:43;35.33;;;17.67;;
46491;SDS011;32206;51.446;6.792;2022-12-13T07:40:09;32.33;;;16.65;;
46491;SDS011;32206;51.446;6.792;2022-12-13T07:42:35;27.30;;;15.52;;
46491;SDS011;32206;51.446;6.792;2022-12-13T07:45:01;32.75;;;16.77;;
46491;SDS011;32206;51.446;6.792;2022-12-13T07:47:30;32.85;;;15.93;;
46491;SDS011;32206;51.446;6.792;2022-12-13T07:49:56;32.92;;;16.88;;
46491;SDS011;32206;51.446;6.792;2022-12-13T07:52:22;30.25;;;16.38;;
46491;SDS011;32206;51.446;6.792;2022-12-13T07:54:48;33.47;;;16.60;;
46491;SDS011;32206;51.446;6.792;2022-12-13T07:57:14;30.20;;;15.30;;
46491;SDS011;32206;51.446;6.792;2022-12-13T07:59:40;32.13;;;15.73;;
46491;SDS011;32206;51.446;6.792;2022-12-13T08:02:07;29.92;;;15.63;;
46491;SDS011;32206;51.446;6.792;2022-12-13T08:04:37;35.40;;;17.30;;
46491;SDS011;32206;51.446;6.792;2022-12-13T08:07:05;27.25;;;15.60;;
46491;SDS011;32206;51.446;6.792;2022-12-13T08:09:31;33.15;;;17.42;;
46491;SDS011;32206;51.446;6.792;2022-12-13T08:11:57;29.30;;;17.23;;
46491;SDS011;32206;51.446;6.792;2022-12-13T08:14:22;37.70;;;18.27;;
46491;SDS011;32206;51.446;6.792;2022-12-13T08:16:48;34.58;;;17.42;;
46491;SDS011;32206;51.446;6.792;2022-12-13T08:19:13;31.75;;;17.75;;
46491;SDS011;32206;51.446;6.792;2022-12-13T08:21:39;32.33;;;16.50;;
46491;SDS011;32206;51.446;6.792;2022-12-13T08:24:05;35.97;;;17.58;;
46491;SDS011;32206;51.446;6.792;2022-12-13T08:26:32;34.67;;;16.88;;
46491;SDS011;32206;51.446;6.792;2022-12-13T08:28:58;36.25;;;18.48;;
46491;SDS011;32206;51.446;6.792;2022-12-13T08:31:23;33.25;;;18.77;;
46491;SDS011;32206;51.446;6.792;2022-12-13T08:33:49;36.50;;;19.17;;
46491;SDS011;32206;51.446;6.792;2022-12-13T08:36:15;35.92;;;16.88;;
46491;SDS011;32206;51.446;6.792;2022-12-13T08:38:42;34.17;;;16.92;;
46491;SDS011;32206;51.446;6.792;2022-12-13T08:41:08;29.55;;;18.35;;
46491;SDS011;32206;51.446;6.792;2022-12-13T08:43:35;34.60;;;17.15;;
46491;SDS011;32206;51.446;6.792;2022-12-13T08:46:01;31.13;;;16.70;;
46491;SDS011;32206;51.446;6.792;2022-12-13T08:48:27;32.78;;;17.92;;
46491;SDS011;32206;51.446;6.792;2022-12-13T08:50:53;34.13;;;19.00;;
46491;SDS011;32206;51.446;6.792;2022-12-13T08:53:19;34.47;;;17.30;;
46491;SDS011;32206;51.446;6.792;2022-12-13T08:55:44;34.00;;;17.17;;
46491;SDS011;32206;51.446;6.792;2022-12-13T08:58:10;35.05;;;17.10;;
46491;SDS011;32206;51.446;6.792;2022-12-13T09:00:36;28.98;;;16.65;;
46491;SDS011;32206;51.446;6.792;2022-12-13T09:03:03;36.83;;;18.15;;
46491;SDS011;32206;51.446;6.792;2022-12-13T09:05:29;31.65;;;16.75;;
46491;SDS011;32206;51.446;6.792;2022-12-13T09:07:57;29.08;;;16.27;;
46491;SDS011;32206;51.446;6.792;2022-12-13T09:10:23;34.22;;;17.33;;
46491;SDS011;32206;51.446;6.792;2022-12-13T09:12:49;33.03;;;16.17;;
46491;SDS011;32206;51.446;6.792;2022-12-13T09:15:15;34.40;;;18.58;;
46491;SDS011;32206;51.446;6.792;2022-12-13T09:17:40;35.53;;;17.25;;
46491;SDS011;32206;51.446;6.792;2022-12-13T09:20:07;32.25;;;17.08;;
46491;SDS011;32206;51.446;6.792;2022-12-13T09:22:34;34.97;;;17.75;;
46491;SDS011;32206;51.446;6.792;2022-12-13T09:25:01;39.33;;;17.92;;
46491;SDS011;32206;51.446;6.792;2022-12-13T09:27:27;32.90;;;16.63;;
46491;SDS011;32206;51.446;6.792;2022-12-13T09:29:54;34.92;;;17.52;;
46491;SDS011;32206;51.446;6.792;2022-12-13T09:32:19;33.20;;;17.35;;
46491;SDS011;32206;51.446;6.792;2022-12-13T09:34:46;35.83;;;16.60;;
46491;SDS011;32206;51.446;6.792;2022-12-13T09:37:12;33.38;;;18.38;;
46491;SDS011;32206;51.446;6.792;2022-12-13T09:39:37;33.63;;;17.42;;
46491;SDS011;32206;51.446;6.792;2022-12-13T09:42:03;31.98;;;17.33;;
46491;SDS011;32206;51.446;6.792;2022-12-13T09:44:35;33.45;;;17.95;;
46491;SDS011;32206;51.446;6.792;2022-12-13T09:47:03;31.08;;;17.00;;
46491;SDS011;32206;51.446;6.792;2022-12-13T09:49:40;35.47;;;17.65;;
46491;SDS011;32206;51.446;6.792;2022-12-13T09:52:12;29.63;;;16.55;;
46491;SDS011;32206;51.446;6.792;2022-12-13T09:54:42;30.00;;;15.00;;
46491;SDS011;32206;51.446;6.792;2022-12-13T09:57:19;26.02;;;14.50;;
46491;SDS011;32206;51.446;6.792;2022-12-13T09:59:50;26.75;;;15.20;;
46491;SDS011;32206;51.446;6.792;2022-12-13T10:02:20;23.25;;;13.65;;
46491;SDS011;32206;51.446;6.792;2022-12-13T10:04:56;29.17;;;14.27;;
46491;SDS011;32206;51.446;6.792;2022-12-13T10:07:33;27.10;;;14.52;;
46491;SDS011;32206;51.446;6.792;2022-12-13T10:10:03;26.63;;;13.40;;
46491;SDS011;32206;51.446;6.792;2022-12-13T10:12:29;25.13;;;13.93;;
46491;SDS011;32206;51.446;6.792;2022-12-13T10:15:00;28.13;;;14.82;;
46491;SDS011;32206;51.446;6.792;2022-12-13T10:17:30;26.58;;;13.40;;
46491;SDS011;32206;51.446;6.792;2022-12-13T10:20:00;26.75;;;14.13;;
46491;SDS011;32206;51.446;6.792;2022-12-13T10:22:26;22.65;;;12.98;;
46491;SDS011;32206;51.446;6.792;2022-12-13T10:24:54;27.58;;;13.88;;
46491;SDS011;32206;51.446;6.792;2022-12-13T10:29:58;28.17;;;13.52;;
46491;SDS011;32206;51.446;6.792;2022-12-13T10:32:24;23.65;;;13.40;;
46491;SDS011;32206;51.446;6.792;2022-12-13T10:34:50;23.95;;;14.02;;
46491;SDS011;32206;51.446;6.792;2022-12-13T10:37:28;28.98;;;13.55;;
46491;SDS011;32206;51.446;6.792;2022-12-13T10:39:55;25.17;;;14.13;;
46491;SDS011;32206;51.446;6.792;2022-12-13T10:42:22;23.70;;;12.43;;
46491;SDS011;32206;51.446;6.792;2022-12-13T10:44:48;24.38;;;12.45;;
46491;SDS011;32206;51.446;6.792;2022-12-13T10:47:30;27.42;;;12.98;;
46491;SDS011;32206;51.446;6.792;2022-12-13T10:49:56;25.95;;;12.73;;
46491;SDS011;32206;51.446;6.792;2022-12-13T10:52:34;23.58;;;11.77;;
46491;SDS011;32206;51.446;6.792;2022-12-13T10:55:21;24.10;;;12.88;;
46491;SDS011;32206;51.446;6.792;2022-12-13T10:57:53;31.13;;;13.63;;
46491;SDS011;32206;51.446;6.792;2022-12-13T11:02:55;20.85;;;11.38;;
46491;SDS011;32206;51.446;6.792;2022-12-13T11:05:25;22.00;;;11.63;;
46491;SDS011;32206;51.446;6.792;2022-12-13T11:07:52;25.42;;;12.48;;
46491;SDS011;32206;51.446;6.792;2022-12-13T11:10:27;22.65;;;11.07;;
46491;SDS011;32206;51.446;6.792;2022-12-13T11:13:21;22.83;;;11.57;;
46491;SDS011;32206;51.446;6.792;2022-12-13T11:15:50;21.15;;;11.90;;
46491;SDS011;32206;51.446;6.792;2022-12-13T11:18:20;20.92;;;12.25;;
46491;SDS011;32206;51.446;6.792;2022-12-13T11:20:52;25.77;;;11.80;;
46491;SDS011;32206;51.446;6.792;2022-12-13T11:26:10;19.13;;;10.87;;
46491;SDS011;32206;51.446;6.792;2022-12-13T11:40:08;17.58;;;9.40;;
46491;SDS011;32206;51.446;6.792;2022-12-13T11:43:00;16.27;;;9.52;;
46491;SDS011;32206;51.446;6.792;2022-12-13T11:45:34;27.73;;;9.75;;
46491;SDS011;32206;51.446;6.792;2022-12-13T11:50:35;20.02;;;9.63;;
46491;SDS011;32206;51.446;6.792;2022-12-13T11:56:03;23.13;;;9.68;;
46491;SDS011;32206;51.446;6.792;2022-12-13T11:58:40;19.40;;;10.20;;
46491;SDS011;32206;51.446;6.792;2022-12-13T12:02:10;21.85;;;9.55;;
46491;SDS011;32206;51.446;6.792;2022-12-13T12:04:18;16.52;;;8.75;;
46491;SDS011;32206;51.446;6.792;2022-12-13T12:09:31;23.77;;;9.47;;
46491;SDS011;32206;51.446;6.792;2022-12-13T12:12:11;15.60;;;8.55;;
46491;SDS011;32206;51.446;6.792;2022-12-13T12:17:38;16.10;;;8.02;;
46491;SDS011;32206;51.446;6.792;2022-12-13T12:20:04;16.85;;;9.18;;
46491;SDS011;32206;51.446;6.792;2022-12-13T12:22:47;25.20;;;9.23;;
46491;SDS011;32206;51.446;6.792;2022-12-13T12:30:54;22.73;;;8.75;;
46491;SDS011;32206;51.446;6.792;2022-12-13T12:38:20;17.38;;;8.77;;
46491;SDS011;32206;51.446;6.792;2022-12-13T12:43:38;24.27;;;8.52;;
46491;SDS011;32206;51.446;6.792;2022-12-13T12:51:45;26.15;;;8.27;;
46491;SDS011;32206;51.446;6.792;2022-12-13T13:00:07;11.48;;;7.82;;
46491;SDS011;32206;51.446;6.792;2022-12-13T13:05:26;15.02;;;7.28;;
46491;SDS011;32206;51.446;6.792;2022-12-13T13:07:59;19.02;;;7.00;;
46491;SDS011;32206;51.446;6.792;2022-12-13T13:10:45;12.63;;;6.78;;
46491;SDS011;32206;51.446;6.792;2022-12-13T13:13:59;15.70;;;6.90;;
46491;SDS011;32206;51.446;6.792;2022-12-13T13:16:00;12.02;;;6.18;;
46491;SDS011;32206;51.446;6.792;2022-12-13T13:26:34;25.13;;;8.00;;
46491;SDS011;32206;51.446;6.792;2022-12-13T13:29:20;10.77;;;6.72;;
46491;SDS011;32206;51.446;6.792;2022-12-13T13:32:02;9.38;;;5.90;;
46491;SDS011;32206;51.446;6.792;2022-12-13T13:36:56;21.85;;;7.22;;
46491;SDS011;32206;51.446;6.792;2022-12-13T13:49:46;15.10;;;6.20;;
46491;SDS011;32206;51.446;6.792;2022-12-13T14:01:12;11.82;;;5.93;;
46491;SDS011;32206;51.446;6.792;2022-12-13T14:06:44;10.43;;;5.82;;
46491;SDS011;32206;51.446;6.792;2022-12-13T14:14:52;24.00;;;6.63;;
46491;SDS011;32206;51.446;6.792;2022-12-13T14:31:00;21.75;;;13.02;;
46491;SDS011;32206;51.446;6.792;2022-12-13T14:33:26;24.23;;;11.77;;
46491;SDS011;32206;51.446;6.792;2022-12-13T14:35:57;24.83;;;13.63;;
46491;SDS011;32206;51.446;6.792;2022-12-13T14:38:25;26.42;;;12.95;;
46491;SDS011;32206;51.446;6.792;2022-12-13T14:40:53;24.13;;;11.75;;
46491;SDS011;32206;51.446;6.792;2022-12-13T14:43:26;24.88;;;11.52;;
46491;SDS011;32206;51.446;6.792;2022-12-13T14:46:00;23.15;;;12.32;;
46491;SDS011;32206;51.446;6.792;2022-12-13T14:48:42;24.40;;;12.10;;
46491;SDS011;32206;51.446;6.792;2022-12-13T14:53:56;25.10;;;11.82;;
46491;SDS011;32206;51.446;6.792;2022-12-13T14:56:23;22.60;;;11.20;;
46491;SDS011;32206;51.446;6.792;2022-12-13T14:59:10;23.88;;;10.48;;
46491;SDS011;32206;51.446;6.792;2022-12-13T15:01:37;26.13;;;12.38;;
46491;SDS011;32206;51.446;6.792;2022-12-13T15:06:44;28.25;;;12.25;;
46491;SDS011;32206;51.446;6.792;2022-12-13T15:09:12;20.50;;;10.82;;
46491;SDS011;32206;51.446;6.792;2022-12-13T15:11:39;18.83;;;10.90;;
46491;SDS011;32206;51.446;6.792;2022-12-13T15:14:11;26.98;;;12.00;;
46491;SDS011;32206;51.446;6.792;2022-12-13T15:16:40;22.13;;;11.82;;
46491;SDS011;32206;51.446;6.792;2022-12-13T15:19:16;24.25;;;12.10;;
46491;SDS011;32206;51.446;6.792;2022-12-13T15:22:00;24.45;;;11.82;;
46491;SDS011;32206;51.446;6.792;2022-12-13T15:24:31;19.52;;;11.30;;
46491;SDS011;32206;51.446;6.792;2022-12-13T15:26:59;22.27;;;12.25;;
46491;SDS011;32206;51.446;6.792;2022-12-13T15:29:27;27.77;;;11.88;;
46491;SDS011;32206;51.446;6.792;2022-12-13T15:31:54;20.20;;;11.50;;
46491;SDS011;32206;51.446;6.792;2022-12-13T15:36:53;24.50;;;12.00;;
46491;SDS011;32206;51.446;6.792;2022-12-13T15:39:20;20.08;;;11.00;;
46491;SDS011;32206;51.446;6.792;2022-12-13T15:41:48;22.75;;;11.15;;
46491;SDS011;32206;51.446;6.792;2022-12-13T15:44:18;23.33;;;11.20;;
46491;SDS011;32206;51.446;6.792;2022-12-13T15:46:47;17.67;;;10.48;;
46491;SDS011;32206;51.446;6.792;2022-12-13T15:49:26;19.42;;;10.98;;
46491;SDS011;32206;51.446;6.792;2022-12-13T15:52:00;24.52;;;10.75;;
46491;SDS011;32206;51.446;6.792;2022-12-13T15:54:32;26.70;;;10.98;;
46491;SDS011;32206;51.446;6.792;2022-12-13T15:59:37;22.30;;;11.30;;
46491;SDS011;32206;51.446;6.792;2022-12-13T16:02:03;21.98;;;10.60;;
46491;SDS011;32206;51.446;6.792;2022-12-13T16:04:36;23.00;;;11.60;;
46491;SDS011;32206;51.446;6.792;2022-12-13T16:07:02;20.58;;;11.35;;
46491;SDS011;32206;51.446;6.792;2022-12-13T16:09:29;22.17;;;10.52;;
46491;SDS011;32206;51.446;6.792;2022-12-13T16:11:59;23.55;;;11.65;;
46491;SDS011;32206;51.446;6.792;2022-12-13T16:16:54;25.38;;;11.68;;
46491;SDS011;32206;51.446;6.792;2022-12-13T16:19:25;24.70;;;12.10;;
46491;SDS011;32206;51.446;6.792;2022-12-13T16:21:51;27.38;;;11.38;;
46491;SDS011;32206;51.446;6.792;2022-12-13T16:24:17;23.95;;;11.82;;
46491;SDS011;32206;51.446;6.792;2022-12-13T16:26:43;29.23;;;12.70;;
46491;SDS011;32206;51.446;6.792;2022-12-13T16:29:11;29.70;;;12.63;;
46491;SDS011;32206;51.446;6.792;2022-12-13T16:31:40;30.02;;;12.98;;
46491;SDS011;32206;51.446;6.792;2022-12-13T16:34:06;25.42;;;12.45;;
46491;SDS011;32206;51.446;6.792;2022-12-13T16:36:32;28.52;;;14.60;;
46491;SDS011;32206;51.446;6.792;2022-12-13T16:38:58;24.92;;;12.50;;
46491;SDS011;32206;51.446;6.792;2022-12-13T16:41:24;22.30;;;12.73;;
46491;SDS011;32206;51.446;6.792;2022-12-13T16:43:59;28.70;;;13.60;;
46491;SDS011;32206;51.446;6.792;2022-12-13T16:46:27;29.23;;;13.82;;
46491;SDS011;32206;51.446;6.792;2022-12-13T16:48:53;33.10;;;13.48;;
46491;SDS011;32206;51.446;6.792;2022-12-13T16:51:19;22.98;;;12.13;;
46491;SDS011;32206;51.446;6.792;2022-12-13T16:53:45;27.70;;;13.32;;
46491;SDS011;32206;51.446;6.792;2022-12-13T16:56:11;21.88;;;12.60;;
46491;SDS011;32206;51.446;6.792;2022-12-13T16:58:40;27.27;;;13.45;;
46491;SDS011;32206;51.446;6.792;2022-12-13T17:01:07;35.75;;;13.93;;
46491;SDS011;32206;51.446;6.792;2022-12-13T17:03:34;26.80;;;13.80;;